sensor_id;sensor_type;location;lat;lon;timestamp;pressure;altitude;pressure_sealevel;temperature;humidity
65897;BME280;52677;50.898;10.854;2023-05-23T00:00:06;98205.69;;;14.60;100.00
65897;BME280;52677;50.898;10.854;2023-05-23T00:02:06;98196.19;;;14.57;100.00
65897;BME280;52677;50.898;10.854;2023-05-23T00:04:07;98202.53;;;14.58;100.00
65897;BME280;52677;50.898;10.854;2023-05-23T00:06:09;98203.31;;;14.58;100.00
65897;BME280;52677;50.898;10.854;2023-05-23T00:08:09;98203.75;;;14.57;100.00
65897;BME280;52677;50.898;10.854;2023-05-23T00:10:10;98198.13;;;14.60;100.00
65897;BME280;52677;50.898;10.854;2023-05-23T00:12:11;98203.31;;;14.58;100.00
65897;BME280;52677;50.898;10.854;2023-05-23T00:14:12;98201.34;;;14.55;100.00
65897;BME280;52677;50.898;10.854;2023-05-23T00:16:13;98196.97;;;14.58;100.00
65897;BME280;52677;50.898;10.854;2023-05-23T00:18:13;98192.19;;;14.58;100.00
65897;BME280;52677;50.898;10.854;2023-05-23T00:20:15;98199.34;;;14.56;100.00
65897;BME280;52677;50.898;10.854;2023-05-23T00:22:15;98199.34;;;14.59;100.00
65897;BME280;52677;50.898;10.854;2023-05-23T00:24:16;98198.97;;;14.57;100.00
65897;BME280;52677;50.898;10.854;2023-05-23T00:26:17;98215.28;;;14.55;100.00
65897;BME280;52677;50.898;10.854;2023-05-23T00:28:18;98201.81;;;14.50;100.00
65897;BME280;52677;50.898;10.854;2023-05-23T00:30:18;98211.75;;;14.51;100.00
65897;BME280;52677;50.898;10.854;2023-05-23T00:32:18;98209.78;;;14.45;100.00
65897;BME280;52677;50.898;10.854;2023-05-23T00:34:19;98209.38;;;14.46;100.00
65897;BME280;52677;50.898;10.854;2023-05-23T00:36:19;98203.81;;;14.43;100.00
65897;BME280;52677;50.898;10.854;2023-05-23T00:38:21;98212.19;;;14.39;100.00
65897;BME280;52677;50.898;10.854;2023-05-23T00:40:21;98209.50;;;14.32;100.00
65897;BME280;52677;50.898;10.854;2023-05-23T00:42:22;98205.09;;;14.31;100.00
65897;BME280;52677;50.898;10.854;2023-05-23T00:44:22;98207.50;;;14.29;100.00
65897;BME280;52677;50.898;10.854;2023-05-23T00:46:22;98209.13;;;14.26;100.00
65897;BME280;52677;50.898;10.854;2023-05-23T00:48:24;98206.75;;;14.25;100.00
65897;BME280;52677;50.898;10.854;2023-05-23T00:50:25;98219.09;;;14.24;100.00
65897;BME280;52677;50.898;10.854;2023-05-23T00:52:30;98221.41;;;14.29;100.00
65897;BME280;52677;50.898;10.854;2023-05-23T00:54:30;98213.53;;;14.24;100.00
65897;BME280;52677;50.898;10.854;2023-05-23T00:56:30;98225.81;;;14.23;100.00
65897;BME280;52677;50.898;10.854;2023-05-23T00:58:31;98223.41;;;14.28;100.00
65897;BME280;52677;50.898;10.854;2023-05-23T01:00:31;98226.56;;;14.34;100.00
65897;BME280;52677;50.898;10.854;2023-05-23T01:02:33;98229.31;;;14.38;100.00
65897;BME280;52677;50.898;10.854;2023-05-23T01:04:35;98231.66;;;14.39;100.00
65897;BME280;52677;50.898;10.854;2023-05-23T01:06:36;98229.72;;;14.36;100.00
65897;BME280;52677;50.898;10.854;2023-05-23T01:08:36;98230.50;;;14.40;100.00
65897;BME280;52677;50.898;10.854;2023-05-23T01:10:37;98230.50;;;14.37;100.00
65897;BME280;52677;50.898;10.854;2023-05-23T01:15:09;98234.09;;;14.37;100.00
65897;BME280;52677;50.898;10.854;2023-05-23T01:17:18;98235.31;;;14.32;100.00
65897;BME280;52677;50.898;10.854;2023-05-23T01:20:01;98251.25;;;14.28;100.00
65897;BME280;52677;50.898;10.854;2023-05-23T01:25:06;98239.72;;;14.26;100.00
65897;BME280;52677;50.898;10.854;2023-05-23T01:27:35;98239.34;;;14.24;100.00
65897;BME280;52677;50.898;10.854;2023-05-23T01:29:40;98236.25;;;14.15;100.00
65897;BME280;52677;50.898;10.854;2023-05-23T01:31:43;98243.75;;;14.18;100.00
65897;BME280;52677;50.898;10.854;2023-05-23T01:33:45;98239.38;;;14.21;100.00
65897;BME280;52677;50.898;10.854;2023-05-23T01:35:50;98239.78;;;14.19;100.00
65897;BME280;52677;50.898;10.854;2023-05-23T01:37:54;98245.75;;;14.18;100.00
65897;BME280;52677;50.898;10.854;2023-05-23T01:39:55;98234.66;;;14.11;100.00
65897;BME280;52677;50.898;10.854;2023-05-23T01:41:55;98233.88;;;14.10;100.00
65897;BME280;52677;50.898;10.854;2023-05-23T01:43:56;98245.41;;;14.09;100.00
65897;BME280;52677;50.898;10.854;2023-05-23T01:45:58;98229.16;;;14.03;100.00
65897;BME280;52677;50.898;10.854;2023-05-23T01:48:01;98236.66;;;14.10;100.00
65897;BME280;52677;50.898;10.854;2023-05-23T01:50:02;98227.53;;;14.06;100.00
65897;BME280;52677;50.898;10.854;2023-05-23T01:52:03;98235.91;;;14.02;100.00
65897;BME280;52677;50.898;10.854;2023-05-23T01:54:04;98232.38;;;13.98;100.00
65897;BME280;52677;50.898;10.854;2023-05-23T01:56:05;98236.34;;;13.97;100.00
65897;BME280;52677;50.898;10.854;2023-05-23T01:58:06;98244.28;;;13.95;100.00
65897;BME280;52677;50.898;10.854;2023-05-23T02:00:07;98244.28;;;13.95;100.00
65897;BME280;52677;50.898;10.854;2023-05-23T02:02:10;98237.94;;;13.95;100.00
65897;BME280;52677;50.898;10.854;2023-05-23T02:04:10;98244.25;;;14.02;100.00
65897;BME280;52677;50.898;10.854;2023-05-23T02:06:11;98245.50;;;13.94;100.00
65897;BME280;52677;50.898;10.854;2023-05-23T02:08:11;98245.88;;;13.96;100.00
65897;BME280;52677;50.898;10.854;2023-05-23T02:10:11;98237.19;;;13.91;100.00
65897;BME280;52677;50.898;10.854;2023-05-23T02:12:12;98240.75;;;13.91;100.00
65897;BME280;52677;50.898;10.854;2023-05-23T02:14:12;98242.34;;;13.89;100.00
65897;BME280;52677;50.898;10.854;2023-05-23T02:16:12;98248.69;;;13.89;100.00
65897;BME280;52677;50.898;10.854;2023-05-23T02:18:13;98246.69;;;13.93;100.00
65897;BME280;52677;50.898;10.854;2023-05-23T02:20:13;98245.91;;;13.89;100.00
65897;BME280;52677;50.898;10.854;2023-05-23T02:22:14;98254.25;;;13.93;100.00
65897;BME280;52677;50.898;10.854;2023-05-23T02:24:14;98248.31;;;13.87;100.00
65897;BME280;52677;50.898;10.854;2023-05-23T02:26:14;98249.50;;;13.86;100.00
65897;BME280;52677;50.898;10.854;2023-05-23T02:28:15;98261.84;;;13.82;100.00
65897;BME280;52677;50.898;10.854;2023-05-23T02:30:15;98253.50;;;13.82;100.00
65897;BME280;52677;50.898;10.854;2023-05-23T02:32:16;98253.88;;;13.91;100.00
65897;BME280;52677;50.898;10.854;2023-05-23T02:34:16;98266.53;;;13.95;100.00
65897;BME280;52677;50.898;10.854;2023-05-23T02:36:16;98266.94;;;13.97;100.00
65897;BME280;52677;50.898;10.854;2023-05-23T02:38:17;98262.56;;;13.96;100.00
65897;BME280;52677;50.898;10.854;2023-05-23T02:40:19;98262.16;;;13.98;100.00
65897;BME280;52677;50.898;10.854;2023-05-23T02:42:19;98269.28;;;14.02;100.00
65897;BME280;52677;50.898;10.854;2023-05-23T02:44:20;98259.38;;;14.01;100.00
65897;BME280;52677;50.898;10.854;2023-05-23T02:46:20;98262.94;;;14.02;100.00
65897;BME280;52677;50.898;10.854;2023-05-23T02:48:21;98278.00;;;14.08;100.00
65897;BME280;52677;50.898;10.854;2023-05-23T02:50:21;98264.94;;;14.01;100.00
65897;BME280;52677;50.898;10.854;2023-05-23T02:52:21;98260.53;;;14.04;100.00
65897;BME280;52677;50.898;10.854;2023-05-23T02:54:21;98263.34;;;14.00;100.00
65897;BME280;52677;50.898;10.854;2023-05-23T02:56:22;98264.56;;;13.96;100.00
65897;BME280;52677;50.898;10.854;2023-05-23T02:58:22;98259.81;;;13.89;100.00
65897;BME280;52677;50.898;10.854;2023-05-23T03:00:23;98269.78;;;13.90;100.00
65897;BME280;52677;50.898;10.854;2023-05-23T03:02:24;98267.38;;;13.89;100.00
65897;BME280;52677;50.898;10.854;2023-05-23T03:04:24;98263.03;;;13.84;100.00
65897;BME280;52677;50.898;10.854;2023-05-23T03:06:26;98269.38;;;13.85;100.00
65897;BME280;52677;50.898;10.854;2023-05-23T03:08:26;98269.81;;;13.83;100.00
65897;BME280;52677;50.898;10.854;2023-05-23T03:10:27;98270.59;;;13.84;100.00
65897;BME280;52677;50.898;10.854;2023-05-23T03:12:27;98257.88;;;13.79;100.00
65897;BME280;52677;50.898;10.854;2023-05-23T03:14:28;98266.22;;;13.79;100.00
65897;BME280;52677;50.898;10.854;2023-05-23T03:16:28;98264.69;;;13.74;100.00
65897;BME280;52677;50.898;10.854;2023-05-23T03:18:29;98253.19;;;13.69;100.00
65897;BME280;52677;50.898;10.854;2023-05-23T03:20:29;98253.97;;;13.69;100.00
65897;BME280;52677;50.898;10.854;2023-05-23T03:22:29;98255.16;;;13.65;100.00
65897;BME280;52677;50.898;10.854;2023-05-23T03:24:30;98254.00;;;13.66;100.00
65897;BME280;52677;50.898;10.854;2023-05-23T03:26:31;98257.97;;;13.61;100.00
65897;BME280;52677;50.898;10.854;2023-05-23T03:28:31;98260.78;;;13.58;100.00
65897;BME280;52677;50.898;10.854;2023-05-23T03:30:31;98251.25;;;13.55;100.00
65897;BME280;52677;50.898;10.854;2023-05-23T03:32:32;98264.34;;;13.58;100.00
65897;BME280;52677;50.898;10.854;2023-05-23T03:34:32;98260.00;;;13.57;100.00
65897;BME280;52677;50.898;10.854;2023-05-23T03:36:33;98265.13;;;13.62;100.00
65897;BME280;52677;50.898;10.854;2023-05-23T03:38:34;98261.53;;;13.62;100.00
65897;BME280;52677;50.898;10.854;2023-05-23T03:40:35;98261.53;;;13.62;100.00
65897;BME280;52677;50.898;10.854;2023-05-23T03:42:35;98261.13;;;13.63;100.00
65897;BME280;52677;50.898;10.854;2023-05-23T03:44:36;98255.19;;;13.61;100.00
65897;BME280;52677;50.898;10.854;2023-05-23T03:46:36;98260.34;;;13.63;100.00
65897;BME280;52677;50.898;10.854;2023-05-23T03:48:37;98259.16;;;13.67;100.00
65897;BME280;52677;50.898;10.854;2023-05-23T03:50:37;98263.50;;;13.65;100.00
65897;BME280;52677;50.898;10.854;2023-05-23T03:52:37;98268.69;;;13.66;100.00
65897;BME280;52677;50.898;10.854;2023-05-23T03:54:37;98265.84;;;13.77;100.00
65897;BME280;52677;50.898;10.854;2023-05-23T03:56:38;98261.09;;;13.77;100.00
65897;BME280;52677;50.898;10.854;2023-05-23T03:58:38;98260.69;;;13.72;100.00
65897;BME280;52677;50.898;10.854;2023-05-23T04:00:39;98262.28;;;13.76;100.00
65897;BME280;52677;50.898;10.854;2023-05-23T04:02:39;98261.09;;;13.74;100.00
65897;BME280;52677;50.898;10.854;2023-05-23T04:04:40;98265.44;;;13.82;100.00
65897;BME280;52677;50.898;10.854;2023-05-23T04:06:40;98276.16;;;13.84;100.00
65897;BME280;52677;50.898;10.854;2023-05-23T04:08:41;98266.59;;;13.81;100.00
65897;BME280;52677;50.898;10.854;2023-05-23T04:10:42;98279.34;;;13.82;100.00
65897;BME280;52677;50.898;10.854;2023-05-23T04:12:43;98279.34;;;13.82;100.00
65897;BME280;52677;50.898;10.854;2023-05-23T04:14:43;98270.59;;;13.80;100.00
65897;BME280;52677;50.898;10.854;2023-05-23T04:16:43;98272.97;;;13.85;100.00
65897;BME280;52677;50.898;10.854;2023-05-23T04:18:43;98274.53;;;13.86;100.00
65897;BME280;52677;50.898;10.854;2023-05-23T04:20:46;98271.34;;;13.88;100.00
65897;BME280;52677;50.898;10.854;2023-05-23T04:22:46;98272.13;;;13.92;100.00
65897;BME280;52677;50.898;10.854;2023-05-23T04:24:47;98275.69;;;13.99;100.00
65897;BME280;52677;50.898;10.854;2023-05-23T04:26:47;98274.13;;;13.91;100.00
65897;BME280;52677;50.898;10.854;2023-05-23T04:28:47;98278.91;;;13.91;100.00
65897;BME280;52677;50.898;10.854;2023-05-23T04:30:49;98280.47;;;13.92;100.00
65897;BME280;52677;50.898;10.854;2023-05-23T04:32:49;98299.13;;;13.98;100.00
65897;BME280;52677;50.898;10.854;2023-05-23T04:34:50;98292.75;;;13.98;100.00
65897;BME280;52677;50.898;10.854;2023-05-23T04:36:51;98289.97;;;13.98;100.00
65897;BME280;52677;50.898;10.854;2023-05-23T04:38:52;98289.59;;;13.99;100.00
65897;BME280;52677;50.898;10.854;2023-05-23T04:40:53;98286.34;;;14.08;100.00
65897;BME280;52677;50.898;10.854;2023-05-23T04:42:53;98296.63;;;14.15;100.00
65897;BME280;52677;50.898;10.854;2023-05-23T04:44:54;98288.31;;;14.11;100.00
65897;BME280;52677;50.898;10.854;2023-05-23T04:46:57;98300.22;;;14.15;100.00
65897;BME280;52677;50.898;10.854;2023-05-23T04:48:58;98304.16;;;14.21;100.00
65897;BME280;52677;50.898;10.854;2023-05-23T04:50:59;98295.81;;;14.25;100.00
65897;BME280;52677;50.898;10.854;2023-05-23T04:53:01;98296.13;;;14.34;100.00
65897;BME280;52677;50.898;10.854;2023-05-23T04:55:01;98306.44;;;14.37;100.00
65897;BME280;52677;50.898;10.854;2023-05-23T04:57:02;98310.00;;;14.38;100.00
65897;BME280;52677;50.898;10.854;2023-05-23T04:59:02;98315.16;;;14.39;100.00
65897;BME280;52677;50.898;10.854;2023-05-23T05:01:02;98319.19;;;14.34;100.00
65897;BME280;52677;50.898;10.854;2023-05-23T05:03:03;98315.63;;;14.34;100.00
65897;BME280;52677;50.898;10.854;2023-05-23T05:05:03;98325.16;;;14.33;100.00
65897;BME280;52677;50.898;10.854;2023-05-23T05:07:05;98326.41;;;14.25;100.00
65897;BME280;52677;50.898;10.854;2023-05-23T05:09:05;98318.41;;;14.30;100.00
65897;BME280;52677;50.898;10.854;2023-05-23T05:11:06;98328.00;;;14.26;100.00
65897;BME280;52677;50.898;10.854;2023-05-23T05:13:06;98330.34;;;14.27;100.00
65897;BME280;52677;50.898;10.854;2023-05-23T05:15:07;98328.78;;;14.26;100.00
65897;BME280;52677;50.898;10.854;2023-05-23T05:17:07;98341.88;;;14.29;100.00
65897;BME280;52677;50.898;10.854;2023-05-23T05:19:08;98327.50;;;14.38;100.00
65897;BME280;52677;50.898;10.854;2023-05-23T05:21:08;98338.63;;;14.38;100.00
65897;BME280;52677;50.898;10.854;2023-05-23T05:23:08;98339.88;;;14.30;100.00
65897;BME280;52677;50.898;10.854;2023-05-23T05:25:09;98334.34;;;14.26;100.00
65897;BME280;52677;50.898;10.854;2023-05-23T05:27:10;98335.97;;;14.24;100.00
65897;BME280;52677;50.898;10.854;2023-05-23T05:29:11;98345.09;;;14.21;100.00
65897;BME280;52677;50.898;10.854;2023-05-23T05:31:12;98347.50;;;14.19;100.00
65897;BME280;52677;50.898;10.854;2023-05-23T05:33:14;98343.47;;;14.27;100.00
65897;BME280;52677;50.898;10.854;2023-05-23T05:35:15;98345.16;;;14.10;100.00
65897;BME280;52677;50.898;10.854;2023-05-23T05:37:15;98354.69;;;14.05;100.00
65897;BME280;52677;50.898;10.854;2023-05-23T05:39:16;98354.69;;;14.05;100.00
65897;BME280;52677;50.898;10.854;2023-05-23T05:41:16;98344.81;;;14.01;100.00
65897;BME280;52677;50.898;10.854;2023-05-23T05:43:17;98356.34;;;13.99;100.00
65897;BME280;52677;50.898;10.854;2023-05-23T05:45:17;98355.16;;;14.00;100.00
65897;BME280;52677;50.898;10.854;2023-05-23T05:47:17;98349.56;;;13.97;100.00
65897;BME280;52677;50.898;10.854;2023-05-23T05:49:18;98365.03;;;14.09;100.00
65897;BME280;52677;50.898;10.854;2023-05-23T05:51:18;98353.88;;;14.16;100.00
65897;BME280;52677;50.898;10.854;2023-05-23T05:53:18;98358.25;;;14.17;100.00
65897;BME280;52677;50.898;10.854;2023-05-23T05:55:19;98353.03;;;14.22;100.00
65897;BME280;52677;50.898;10.854;2023-05-23T05:57:19;98362.22;;;14.16;100.00
65897;BME280;52677;50.898;10.854;2023-05-23T05:59:19;98357.47;;;14.13;100.00
65897;BME280;52677;50.898;10.854;2023-05-23T06:01:20;98371.34;;;14.20;100.00
65897;BME280;52677;50.898;10.854;2023-05-23T06:03:20;98364.97;;;14.26;100.00
65897;BME280;52677;50.898;10.854;2023-05-23T06:05:21;98361.03;;;14.17;100.00
65897;BME280;52677;50.898;10.854;2023-05-23T06:07:21;98362.97;;;14.27;100.00
65897;BME280;52677;50.898;10.854;2023-05-23T06:09:21;98364.88;;;14.37;100.00
65897;BME280;52677;50.898;10.854;2023-05-23T06:11:21;98362.47;;;14.43;100.00
65897;BME280;52677;50.898;10.854;2023-05-23T06:13:22;98368.91;;;14.32;100.00
65897;BME280;52677;50.898;10.854;2023-05-23T06:15:22;98372.88;;;14.31;100.00
65897;BME280;52677;50.898;10.854;2023-05-23T06:17:22;98374.13;;;14.20;100.00
65897;BME280;52677;50.898;10.854;2023-05-23T06:19:23;98377.28;;;14.25;100.00
65897;BME280;52677;50.898;10.854;2023-05-23T06:21:23;98382.56;;;14.02;100.00
65897;BME280;52677;50.898;10.854;2023-05-23T06:23:23;98377.81;;;13.99;100.00
65897;BME280;52677;50.898;10.854;2023-05-23T06:25:24;98381.00;;;13.90;100.00
65897;BME280;52677;50.898;10.854;2023-05-23T06:27:24;98373.88;;;13.86;100.00
65897;BME280;52677;50.898;10.854;2023-05-23T06:29:24;98364.34;;;13.80;100.00
65897;BME280;52677;50.898;10.854;2023-05-23T06:31:24;98370.69;;;13.87;100.00
65897;BME280;52677;50.898;10.854;2023-05-23T06:33:25;98373.91;;;13.71;100.00
65897;BME280;52677;50.898;10.854;2023-05-23T06:35:25;98377.88;;;13.74;100.00
65897;BME280;52677;50.898;10.854;2023-05-23T06:37:25;98369.97;;;13.62;100.00
65897;BME280;52677;50.898;10.854;2023-05-23T06:39:26;98369.97;;;13.62;100.00
65897;BME280;52677;50.898;10.854;2023-05-23T06:41:26;98370.34;;;13.67;100.00
65897;BME280;52677;50.898;10.854;2023-05-23T06:43:27;98371.94;;;13.68;100.00
65897;BME280;52677;50.898;10.854;2023-05-23T06:45:27;98373.91;;;13.68;100.00
65897;BME280;52677;50.898;10.854;2023-05-23T06:47:27;98376.31;;;13.55;100.00
65897;BME280;52677;50.898;10.854;2023-05-23T06:49:28;98379.91;;;13.52;100.00
65897;BME280;52677;50.898;10.854;2023-05-23T06:51:28;98389.81;;;13.57;100.00
65897;BME280;52677;50.898;10.854;2023-05-23T06:53:28;98385.47;;;13.48;100.00
65897;BME280;52677;50.898;10.854;2023-05-23T06:55:28;98387.84;;;13.39;100.00
65897;BME280;52677;50.898;10.854;2023-05-23T06:57:29;98397.41;;;13.42;100.00
65897;BME280;52677;50.898;10.854;2023-05-23T06:59:29;98389.44;;;13.40;100.00
65897;BME280;52677;50.898;10.854;2023-05-23T07:01:30;98396.59;;;13.45;100.00
65897;BME280;52677;50.898;10.854;2023-05-23T07:03:30;98397.38;;;13.45;100.00
65897;BME280;52677;50.898;10.854;2023-05-23T07:05:30;98404.16;;;13.41;100.00
65897;BME280;52677;50.898;10.854;2023-05-23T07:07:32;98399.78;;;13.43;100.00
65897;BME280;52677;50.898;10.854;2023-05-23T07:09:32;98393.41;;;13.46;100.00
65897;BME280;52677;50.898;10.854;2023-05-23T07:11:32;98402.53;;;13.58;100.00
65897;BME280;52677;50.898;10.854;2023-05-23T07:13:34;98400.50;;;13.72;100.00
65897;BME280;52677;50.898;10.854;2023-05-23T07:15:34;98398.13;;;13.78;100.00
65897;BME280;52677;50.898;10.854;2023-05-23T07:17:35;98403.66;;;13.85;100.00
65897;BME280;52677;50.898;10.854;2023-05-23T07:19:36;98403.25;;;13.90;100.00
65897;BME280;52677;50.898;10.854;2023-05-23T07:21:36;98400.84;;;13.99;100.00
65897;BME280;52677;50.898;10.854;2023-05-23T07:23:37;98403.19;;;14.04;100.00
65897;BME280;52677;50.898;10.854;2023-05-23T07:25:37;98403.59;;;14.10;100.00
65897;BME280;52677;50.898;10.854;2023-05-23T07:27:39;98406.34;;;14.06;100.00
65897;BME280;52677;50.898;10.854;2023-05-23T07:29:39;98401.16;;;14.19;100.00
65897;BME280;52677;50.898;10.854;2023-05-23T07:31:40;98419.88;;;14.04;100.00
65897;BME280;52677;50.898;10.854;2023-05-23T07:33:40;98420.28;;;14.06;100.00
65897;BME280;52677;50.898;10.854;2023-05-23T07:35:42;98409.56;;;14.01;100.00
65897;BME280;52677;50.898;10.854;2023-05-23T07:37:43;98411.19;;;13.99;100.00
65897;BME280;52677;50.898;10.854;2023-05-23T07:39:43;98415.19;;;13.91;100.00
65897;BME280;52677;50.898;10.854;2023-05-23T07:41:44;98417.16;;;13.94;100.00
65897;BME280;52677;50.898;10.854;2023-05-23T07:43:44;98417.94;;;13.87;100.00
65897;BME280;52677;50.898;10.854;2023-05-23T07:45:44;98423.50;;;13.87;100.00
65897;BME280;52677;50.898;10.854;2023-05-23T07:47:45;98421.53;;;13.88;100.00
65897;BME280;52677;50.898;10.854;2023-05-23T07:49:45;98429.47;;;13.89;100.00
65897;BME280;52677;50.898;10.854;2023-05-23T07:51:46;98434.66;;;13.91;100.00
65897;BME280;52677;50.898;10.854;2023-05-23T07:53:46;98424.69;;;13.93;100.00
65897;BME280;52677;50.898;10.854;2023-05-23T07:55:47;98423.53;;;13.91;100.00
65897;BME280;52677;50.898;10.854;2023-05-23T07:57:47;98429.44;;;14.03;100.00
65897;BME280;52677;50.898;10.854;2023-05-23T07:59:49;98425.88;;;13.96;100.00
65897;BME280;52677;50.898;10.854;2023-05-23T08:01:50;98422.28;;;14.02;100.00
65897;BME280;52677;50.898;10.854;2023-05-23T08:03:50;98426.25;;;14.09;100.00
65897;BME280;52677;50.898;10.854;2023-05-23T08:05:51;98421.47;;;14.09;100.00
65897;BME280;52677;50.898;10.854;2023-05-23T08:07:51;98422.22;;;14.20;100.00
65897;BME280;52677;50.898;10.854;2023-05-23T08:09:53;98422.59;;;14.22;100.00
65897;BME280;52677;50.898;10.854;2023-05-23T08:11:53;98432.53;;;14.27;100.00
65897;BME280;52677;50.898;10.854;2023-05-23T08:13:54;98434.13;;;14.28;100.00
65897;BME280;52677;50.898;10.854;2023-05-23T08:15:54;98427.41;;;14.18;100.00
65897;BME280;52677;50.898;10.854;2023-05-23T08:17:54;98432.56;;;14.20;100.00
65897;BME280;52677;50.898;10.854;2023-05-23T08:19:56;98436.56;;;14.12;100.00
65897;BME280;52677;50.898;10.854;2023-05-23T08:21:56;98437.34;;;14.12;100.00
65897;BME280;52677;50.898;10.854;2023-05-23T08:23:57;98438.56;;;14.04;100.00
65897;BME280;52677;50.898;10.854;2023-05-23T08:25:57;98440.16;;;14.05;100.00
65897;BME280;52677;50.898;10.854;2023-05-23T08:27:58;98444.50;;;14.06;100.00
65897;BME280;52677;50.898;10.854;2023-05-23T08:29:59;98441.75;;;14.02;100.00
65897;BME280;52677;50.898;10.854;2023-05-23T08:32:00;98438.13;;;14.13;100.00
65897;BME280;52677;50.898;10.854;2023-05-23T08:34:00;98441.69;;;14.24;100.00
65897;BME280;52677;50.898;10.854;2023-05-23T08:36:00;98437.72;;;14.21;100.00
65897;BME280;52677;50.898;10.854;2023-05-23T08:38:03;98439.63;;;14.39;100.00
65897;BME280;52677;50.898;10.854;2023-05-23T08:40:06;98442.41;;;14.49;100.00
65897;BME280;52677;50.898;10.854;2023-05-23T08:42:07;98438.38;;;14.61;100.00
65897;BME280;52677;50.898;10.854;2023-05-23T08:44:08;98446.31;;;14.63;100.00
65897;BME280;52677;50.898;10.854;2023-05-23T08:46:08;98436.72;;;14.71;100.00
65897;BME280;52677;50.898;10.854;2023-05-23T08:48:10;98440.28;;;14.71;100.00
65897;BME280;52677;50.898;10.854;2023-05-23T08:50:14;98443.53;;;14.66;100.00
65897;BME280;52677;50.898;10.854;2023-05-23T08:52:17;98438.44;;;14.50;100.00
65897;BME280;52677;50.898;10.854;2023-05-23T08:54:21;98442.78;;;14.44;100.00
65897;BME280;52677;50.898;10.854;2023-05-23T08:56:22;98443.63;;;14.38;100.00
65897;BME280;52677;50.898;10.854;2023-05-23T08:58:25;98434.84;;;14.43;100.00
65897;BME280;52677;50.898;10.854;2023-05-23T09:00:28;98436.44;;;14.47;100.00
65897;BME280;52677;50.898;10.854;2023-05-23T09:02:30;98439.22;;;14.51;100.00
65897;BME280;52677;50.898;10.854;2023-05-23T09:04:31;98439.59;;;14.53;100.00
65897;BME280;52677;50.898;10.854;2023-05-23T09:06:32;98441.22;;;14.47;100.00
65897;BME280;52677;50.898;10.854;2023-05-23T09:08:32;98446.00;;;14.50;100.00
65897;BME280;52677;50.898;10.854;2023-05-23T09:10:33;98448.34;;;14.44;100.00
65897;BME280;52677;50.898;10.854;2023-05-23T09:12:35;98451.16;;;14.37;100.00
65897;BME280;52677;50.898;10.854;2023-05-23T09:14:36;98456.38;;;14.31;100.00
65897;BME280;52677;50.898;10.854;2023-05-23T09:16:36;98450.78;;;14.35;100.00
65897;BME280;52677;50.898;10.854;2023-05-23T09:18:38;98461.50;;;14.40;100.00
65897;BME280;52677;50.898;10.854;2023-05-23T09:20:39;98463.13;;;14.34;100.00
65897;BME280;52677;50.898;10.854;2023-05-23T09:22:40;98464.69;;;14.39;100.00
65897;BME280;52677;50.898;10.854;2023-05-23T09:24:42;98471.81;;;14.40;100.00
65897;BME280;52677;50.898;10.854;2023-05-23T09:26:46;98463.09;;;14.38;100.00
65897;BME280;52677;50.898;10.854;2023-05-23T09:28:47;98467.84;;;14.44;100.00
65897;BME280;52677;50.898;10.854;2023-05-23T09:30:50;98471.44;;;14.41;100.00
65897;BME280;52677;50.898;10.854;2023-05-23T09:32:59;98469.88;;;14.40;100.00
65897;BME280;52677;50.898;10.854;2023-05-23T09:35:02;98469.06;;;14.50;100.00
65897;BME280;52677;50.898;10.854;2023-05-23T09:37:03;98467.03;;;14.54;100.00
65897;BME280;52677;50.898;10.854;2023-05-23T09:39:04;98465.47;;;14.50;100.00
65897;BME280;52677;50.898;10.854;2023-05-23T09:41:07;98472.66;;;14.37;100.00
65897;BME280;52677;50.898;10.854;2023-05-23T09:43:11;98471.06;;;14.36;100.00
65897;BME280;52677;50.898;10.854;2023-05-23T09:45:12;98470.69;;;14.26;100.00
65897;BME280;52677;50.898;10.854;2023-05-23T09:47:14;98468.31;;;14.25;100.00
65897;BME280;52677;50.898;10.854;2023-05-23T09:49:16;98475.47;;;14.22;100.00
65897;BME280;52677;50.898;10.854;2023-05-23T09:51:21;98468.72;;;14.23;100.00
65897;BME280;52677;50.898;10.854;2023-05-23T09:53:22;98469.53;;;14.24;100.00
65897;BME280;52677;50.898;10.854;2023-05-23T09:55:22;98474.28;;;14.27;100.00
65897;BME280;52677;50.898;10.854;2023-05-23T09:57:22;98467.88;;;14.30;100.00
65897;BME280;52677;50.898;10.854;2023-05-23T09:59:27;98471.09;;;14.21;100.00
65897;BME280;52677;50.898;10.854;2023-05-23T10:01:29;98469.53;;;14.20;100.00
65897;BME280;52677;50.898;10.854;2023-05-23T10:03:33;98477.47;;;14.22;100.00
65897;BME280;52677;50.898;10.854;2023-05-23T10:05:56;98476.34;;;14.01;100.00
65897;BME280;52677;50.898;10.854;2023-05-23T10:08:07;98467.97;;;14.05;100.00
65897;BME280;52677;50.898;10.854;2023-05-23T10:10:11;98475.16;;;13.95;100.00
65897;BME280;52677;50.898;10.854;2023-05-23T10:14:21;98465.56;;;14.11;100.00
65897;BME280;52677;50.898;10.854;2023-05-23T10:16:29;98468.00;;;14.01;100.00
65897;BME280;52677;50.898;10.854;2023-05-23T10:18:38;98468.78;;;14.02;100.00
65897;BME280;52677;50.898;10.854;2023-05-23T10:20:42;98467.19;;;14.04;100.00
65897;BME280;52677;50.898;10.854;2023-05-23T10:22:47;98468.75;;;14.05;100.00
65897;BME280;52677;50.898;10.854;2023-05-23T10:24:48;98474.69;;;14.15;100.00
65897;BME280;52677;50.898;10.854;2023-05-23T10:26:48;98476.72;;;14.11;100.00
65897;BME280;52677;50.898;10.854;2023-05-23T10:28:49;98478.28;;;14.19;100.00
65897;BME280;52677;50.898;10.854;2023-05-23T10:30:50;98487.03;;;14.14;100.00
65897;BME280;52677;50.898;10.854;2023-05-23T10:32:51;98479.91;;;14.09;100.00